Accueil
METAR-TAF:

METAR-TAF

Aéroports :

Aéroport international Saint-Gall-Altenrhein

Saint-Gall, Suisse

latitude: 47-29-06N, longitude: 009-33-43E, altitude: 398 m

Observation

Le bulletin a été fait il y a 14 minutes, à 19:20 UTC
Vent 3 kt de sud-est, variant entre est et sud
Température 8°C
Humidité 76%
Pression 1020 hPa
Visibilité 10 km ou plus

METAR: LSZR 071920Z AUTO 14003KT 100V190 9999 NCD 08/04 Q1020

Heure: 21:34 (19:34 UTC)

Prévision

Le bulletin a été fait il y a 5 heures et 9 minutes, à 14:25 UTC
Prévision valable du 07 à 15 UTC au 07 à 24 UTC
Vent 4 kt de nord-ouest
Visibilité 10 km ou plus
Quelques nuages à une hauteur de 2000 ft
Nuages épars à une hauteur de 3000 ft
Probabilité 40%
du 07 à 19 UTC au 07 à 24 UTC
Visibilité 10 km ou plus
pas de nuages en-dessous de 1500 mètres et pas de cumulonimbus.

TAF: LSZR 071425Z 0715/0724 32004KT 9999 FEW020 SCT030 PROB40 0719/0724 CAVOK

Observations et prévisions météorologiques de plus de 4000 aéroports (messages METAR et TAF).

Les stations disponibles sont représentées par des disques jaunes et rouges sur la carte.

Passer la souris dessus pour voir le nom de la station.

Cliquer dessus pour voir les observations et prévisions météorologiques.

Pour changer de carte: cliquez sur les boutons verts avec une croix noire pour zoomer, sur le bouton vert avec un tiret pour effectuer un zoom arrière, ou sur les flèches vertes pour les cartes adjacentes.


METAR-TAF: